HBPIV LSZR-LSZR
Flight info
| Callsign | HBPIV |
|---|---|
| Flight time | 0h 43m |
| Altitude | 5000 |
| Route | SITOR |
| Aircraft | A319/M-SDE3FGHIRWY/LB1 |
Departure
| Time | 2026-04-22 15:08 |
|---|---|
| Airport | Sankt Gallen Altenrhein Airport (LSZR) |
Arrival
| Time | 2026-04-22 15:51 |
|---|---|
| Airport | Sankt Gallen Altenrhein Airport (LSZR) |
| Time | Latitude | Longitude | Altitude | Speed | Heading |
|---|---|---|---|---|---|
| 2026-04-22 15:04 | 47.48615 | 9.55015 | 1313 ft | 0 kts | 98° |
| 2026-04-22 15:07 | 47.48583 | 9.55334 | 1318 ft | 74 kts | 98° |
| 2026-04-22 15:07 | 47.48467 | 9.56473 | 1315 ft | 150 kts | 98° |
| 2026-04-22 15:08 | 47.48280 | 9.58032 | 2003 ft | 150 kts | 94° |
| 2026-04-22 15:08 | 47.48205 | 9.59582 | 2640 ft | 151 kts | 81° |
| 2026-04-22 15:08 | 47.48405 | 9.61082 | 3270 ft | 147 kts | 72° |
| 2026-04-22 15:08 | 47.48768 | 9.62486 | 3925 ft | 145 kts | 63° |
| 2026-04-22 15:09 | 47.49451 | 9.63572 | 4448 ft | 154 kts | 28° |
| 2026-04-22 15:09 | 47.50560 | 9.63596 | 4938 ft | 175 kts | 348° |
| 2026-04-22 15:09 | 47.51526 | 9.62425 | 5005 ft | 188 kts | 306° |
| 2026-04-22 15:09 | 47.51785 | 9.60516 | 5011 ft | 196 kts | 269° |
| 2026-04-22 15:10 | 47.51649 | 9.58502 | 5012 ft | 195 kts | 269° |
| 2026-04-22 15:10 | 47.51587 | 9.56516 | 5014 ft | 197 kts | 271° |
| 2026-04-22 15:10 | 47.51548 | 9.54372 | 5014 ft | 216 kts | 271° |
| 2026-04-22 15:10 | 47.51504 | 9.52132 | 5005 ft | 218 kts | 271° |
| 2026-04-22 15:11 | 47.51453 | 9.49883 | 5005 ft | 220 kts | 271° |
| 2026-04-22 15:11 | 47.51399 | 9.47615 | 5012 ft | 220 kts | 270° |
| 2026-04-22 15:11 | 47.51341 | 9.45393 | 5007 ft | 218 kts | 270° |
| 2026-04-22 15:11 | 47.51280 | 9.43141 | 5012 ft | 219 kts | 270° |
| 2026-04-22 15:12 | 47.51217 | 9.40888 | 5012 ft | 218 kts | 270° |
| 2026-04-22 15:12 | 47.51154 | 9.38641 | 5008 ft | 220 kts | 270° |
| 2026-04-22 15:12 | 47.51092 | 9.36455 | 5025 ft | 209 kts | 270° |
| 2026-04-22 15:12 | 47.51030 | 9.34346 | 5023 ft | 203 kts | 270° |
| 2026-04-22 15:13 | 47.51104 | 9.32265 | 5028 ft | 203 kts | 283° |
| 2026-04-22 15:13 | 47.51350 | 9.30215 | 5027 ft | 203 kts | 285° |
| 2026-04-22 15:13 | 47.51638 | 9.28168 | 5029 ft | 202 kts | 285° |
| 2026-04-22 15:13 | 47.51929 | 9.26133 | 5025 ft | 202 kts | 286° |
| 2026-04-22 15:14 | 47.52211 | 9.24123 | 5024 ft | 202 kts | 287° |
| 2026-04-22 15:14 | 47.52578 | 9.22119 | 5012 ft | 198 kts | 303° |
| 2026-04-22 15:14 | 47.53444 | 9.20651 | 5028 ft | 186 kts | 336° |
| 2026-04-22 15:14 | 47.54614 | 9.20068 | 5035 ft | 172 kts | 4° |
| 2026-04-22 15:15 | 47.55756 | 9.20376 | 5031 ft | 163 kts | 30° |
| 2026-04-22 15:15 | 47.56632 | 9.21383 | 5021 ft | 159 kts | 53° |
| 2026-04-22 15:15 | 47.57101 | 9.22815 | 5028 ft | 158 kts | 77° |
| 2026-04-22 15:15 | 47.57094 | 9.24442 | 5024 ft | 162 kts | 98° |
| 2026-04-22 15:16 | 47.56569 | 9.25959 | 5024 ft | 172 kts | 124° |
| 2026-04-22 15:16 | 47.55557 | 9.26983 | 5027 ft | 185 kts | 155° |
| 2026-04-22 15:16 | 47.54275 | 9.27376 | 5033 ft | 189 kts | 164° |
| 2026-04-22 15:16 | 47.53003 | 9.27767 | 5024 ft | 182 kts | 152° |
| 2026-04-22 15:17 | 47.52002 | 9.28751 | 5020 ft | 171 kts | 124° |
| 2026-04-22 15:17 | 47.51468 | 9.30254 | 5022 ft | 165 kts | 101° |
| 2026-04-22 15:17 | 47.51216 | 9.31909 | 5031 ft | 165 kts | 97° |
| 2026-04-22 15:17 | 47.51002 | 9.33568 | 5021 ft | 163 kts | 95° |
| 2026-04-22 15:18 | 47.51174 | 9.35180 | 5021 ft | 160 kts | 59° |
| 2026-04-22 15:18 | 47.52021 | 9.36210 | 5020 ft | 165 kts | 23° |
| 2026-04-22 15:18 | 47.53183 | 9.36108 | 5024 ft | 182 kts | 341° |
| 2026-04-22 15:18 | 47.54030 | 9.34623 | 5026 ft | 198 kts | 293° |
| 2026-04-22 15:19 | 47.54353 | 9.32652 | 5029 ft | 200 kts | 285° |
| 2026-04-22 15:19 | 47.54606 | 9.30633 | 5028 ft | 198 kts | 284° |
| 2026-04-22 15:19 | 47.54835 | 9.28705 | 5017 ft | 182 kts | 285° |
| 2026-04-22 15:19 | 47.54806 | 9.26897 | 5018 ft | 176 kts | 249° |
| 2026-04-22 15:20 | 47.54008 | 9.25597 | 5019 ft | 170 kts | 198° |
| 2026-04-22 15:20 | 47.52919 | 9.25507 | 5027 ft | 151 kts | 149° |
| 2026-04-22 15:20 | 47.52031 | 9.26246 | 5020 ft | 143 kts | 134° |
| 2026-04-22 15:20 | 47.51574 | 9.27424 | 5026 ft | 131 kts | 94° |
| 2026-04-22 15:21 | 47.51723 | 9.28708 | 5027 ft | 131 kts | 68° |
| 2026-04-22 15:21 | 47.51770 | 9.30053 | 5027 ft | 136 kts | 98° |
| 2026-04-22 15:21 | 47.51621 | 9.31423 | 5026 ft | 132 kts | 91° |
| 2026-04-22 15:21 | 47.51494 | 9.32768 | 5018 ft | 132 kts | 93° |
| 2026-04-22 15:22 | 47.51344 | 9.34114 | 4984 ft | 132 kts | 94° |
| 2026-04-22 15:22 | 47.51185 | 9.35430 | 4836 ft | 131 kts | 94° |
| 2026-04-22 15:22 | 47.51020 | 9.36751 | 4648 ft | 131 kts | 96° |
| 2026-04-22 15:22 | 47.50852 | 9.38069 | 4407 ft | 130 kts | 95° |
| 2026-04-22 15:23 | 47.50682 | 9.39395 | 4174 ft | 130 kts | 95° |
| 2026-04-22 15:23 | 47.50513 | 9.40700 | 3949 ft | 128 kts | 95° |
| 2026-04-22 15:23 | 47.50343 | 9.42010 | 3717 ft | 130 kts | 94° |
| 2026-04-22 15:23 | 47.50174 | 9.43311 | 3496 ft | 128 kts | 94° |
| 2026-04-22 15:24 | 47.50008 | 9.44585 | 3266 ft | 127 kts | 94° |
| 2026-04-22 15:24 | 47.49839 | 9.45883 | 3030 ft | 126 kts | 94° |
| 2026-04-22 15:24 | 47.49674 | 9.47151 | 2805 ft | 127 kts | 95° |
| 2026-04-22 15:24 | 47.49507 | 9.48424 | 2563 ft | 126 kts | 94° |
| 2026-04-22 15:25 | 47.49317 | 9.49702 | 2321 ft | 130 kts | 101° |
| 2026-04-22 15:25 | 47.48981 | 9.50954 | 2054 ft | 128 kts | 99° |
| 2026-04-22 15:25 | 47.48868 | 9.52262 | 1854 ft | 130 kts | 89° |
| 2026-04-22 15:25 | 47.48756 | 9.53590 | 1620 ft | 127 kts | 91° |
| 2026-04-22 15:26 | 47.48626 | 9.54872 | 1360 ft | 127 kts | 92° |
| 2026-04-22 15:26 | 47.48507 | 9.56096 | 1318 ft | 127 kts | 98° |
| 2026-04-22 15:26 | 47.48331 | 9.57489 | 1899 ft | 138 kts | 96° |
| 2026-04-22 15:26 | 47.48113 | 9.59003 | 2409 ft | 159 kts | 95° |
| 2026-04-22 15:27 | 47.47915 | 9.60537 | 3252 ft | 150 kts | 93° |
| 2026-04-22 15:27 | 47.48185 | 9.61954 | 3827 ft | 148 kts | 46° |
| 2026-04-22 15:27 | 47.49142 | 9.62533 | 4387 ft | 159 kts | 4° |
| 2026-04-22 15:27 | 47.50183 | 9.61877 | 4909 ft | 179 kts | 323° |
| 2026-04-22 15:28 | 47.50812 | 9.60198 | 4985 ft | 195 kts | 282° |
| 2026-04-22 15:28 | 47.50749 | 9.58175 | 5015 ft | 198 kts | 262° |
| 2026-04-22 15:28 | 47.50481 | 9.56178 | 5016 ft | 196 kts | 259° |
| 2026-04-22 15:28 | 47.50184 | 9.54209 | 5010 ft | 195 kts | 259° |
| 2026-04-22 15:29 | 47.49888 | 9.52271 | 5008 ft | 196 kts | 258° |
| 2026-04-22 15:29 | 47.49587 | 9.50280 | 5021 ft | 205 kts | 259° |
| 2026-04-22 15:29 | 47.49270 | 9.48148 | 5022 ft | 214 kts | 259° |
| 2026-04-22 15:30 | 47.48629 | 9.43845 | 5014 ft | 215 kts | 259° |
| 2026-04-22 15:30 | 47.48308 | 9.41687 | 5010 ft | 215 kts | 259° |
| 2026-04-22 15:30 | 47.47989 | 9.39511 | 5009 ft | 216 kts | 258° |
| 2026-04-22 15:30 | 47.47669 | 9.37327 | 5016 ft | 219 kts | 259° |
| 2026-04-22 15:31 | 47.47340 | 9.35138 | 5011 ft | 217 kts | 258° |
| 2026-04-22 15:31 | 47.47019 | 9.32974 | 5018 ft | 219 kts | 258° |
| 2026-04-22 15:31 | 47.46781 | 9.30753 | 5006 ft | 216 kts | 273° |
| 2026-04-22 15:31 | 47.46936 | 9.28561 | 5019 ft | 213 kts | 283° |
| 2026-04-22 15:32 | 47.47184 | 9.26378 | 5015 ft | 215 kts | 285° |
| 2026-04-22 15:32 | 47.47436 | 9.24226 | 5004 ft | 210 kts | 283° |
| 2026-04-22 15:32 | 47.47710 | 9.22185 | 4984 ft | 195 kts | 295° |
| 2026-04-22 15:32 | 47.48490 | 9.20730 | 5005 ft | 175 kts | 341° |
| 2026-04-22 15:33 | 47.49599 | 9.20471 | 5017 ft | 156 kts | 24° |
| 2026-04-22 15:33 | 47.50482 | 9.21264 | 5017 ft | 146 kts | 53° |
| 2026-04-22 15:33 | 47.50883 | 9.22624 | 5021 ft | 150 kts | 83° |
| 2026-04-22 15:33 | 47.50904 | 9.24182 | 5027 ft | 153 kts | 86° |
| 2026-04-22 15:34 | 47.50922 | 9.25763 | 5025 ft | 153 kts | 86° |
| 2026-04-22 15:34 | 47.50941 | 9.27320 | 5049 ft | 152 kts | 86° |
| 2026-04-22 15:34 | 47.50958 | 9.28857 | 5024 ft | 147 kts | 86° |
| 2026-04-22 15:34 | 47.50975 | 9.30382 | 5019 ft | 150 kts | 86° |
| 2026-04-22 15:35 | 47.50988 | 9.31402 | 5013 ft | 147 kts | 85° |
| 2026-04-22 15:35 | 47.51012 | 9.33321 | 5008 ft | 134 kts | 85° |
| 2026-04-22 15:35 | 47.50898 | 9.34681 | 5011 ft | 133 kts | 95° |
| 2026-04-22 15:35 | 47.50746 | 9.36027 | 4755 ft | 131 kts | 95° |
| 2026-04-22 15:36 | 47.50601 | 9.37332 | 4503 ft | 129 kts | 94° |
| 2026-04-22 15:36 | 47.50455 | 9.38652 | 4261 ft | 130 kts | 94° |
| 2026-04-22 15:36 | 47.50308 | 9.39967 | 4026 ft | 130 kts | 95° |
| 2026-04-22 15:36 | 47.50159 | 9.41283 | 3792 ft | 128 kts | 94° |
| 2026-04-22 15:37 | 47.50014 | 9.42573 | 3575 ft | 127 kts | 93° |
| 2026-04-22 15:37 | 47.49869 | 9.43857 | 3350 ft | 126 kts | 93° |
| 2026-04-22 15:37 | 47.49723 | 9.45140 | 3117 ft | 127 kts | 93° |
| 2026-04-22 15:37 | 47.49578 | 9.46420 | 2890 ft | 126 kts | 94° |
| 2026-04-22 15:38 | 47.49434 | 9.47694 | 2663 ft | 126 kts | 94° |
| 2026-04-22 15:38 | 47.49144 | 9.50264 | 2209 ft | 126 kts | 93° |
| 2026-04-22 15:38 | 47.48997 | 9.51567 | 1975 ft | 131 kts | 95° |
| 2026-04-22 15:39 | 47.48842 | 9.52896 | 1741 ft | 131 kts | 94° |
| 2026-04-22 15:39 | 47.48692 | 9.54208 | 1481 ft | 128 kts | 91° |
| 2026-04-22 15:39 | 47.48566 | 9.55503 | 1323 ft | 119 kts | 95° |
| 2026-04-22 15:39 | 47.48432 | 9.56757 | 1474 ft | 137 kts | 95° |
| 2026-04-22 15:40 | 47.48254 | 9.58214 | 2070 ft | 153 kts | 97° |
| 2026-04-22 15:40 | 47.48133 | 9.59804 | 2811 ft | 153 kts | 78° |
| 2026-04-22 15:40 | 47.48714 | 9.60986 | 3475 ft | 149 kts | 25° |
| 2026-04-22 15:40 | 47.49766 | 9.60841 | 4023 ft | 168 kts | 333° |
| 2026-04-22 15:41 | 47.50590 | 9.59524 | 4589 ft | 181 kts | 310° |
| 2026-04-22 15:41 | 47.51336 | 9.58003 | 5014 ft | 186 kts | 314° |
| 2026-04-22 15:41 | 47.52134 | 9.56558 | 4997 ft | 182 kts | 316° |
| 2026-04-22 15:41 | 47.52941 | 9.55127 | 5006 ft | 181 kts | 316° |
| 2026-04-22 15:42 | 47.53795 | 9.53635 | 5031 ft | 198 kts | 316° |
| 2026-04-22 15:42 | 47.54697 | 9.52076 | 5011 ft | 201 kts | 316° |
| 2026-04-22 15:42 | 47.55608 | 9.50490 | 5013 ft | 203 kts | 317° |
| 2026-04-22 15:42 | 47.56308 | 9.48660 | 5014 ft | 210 kts | 290° |
| 2026-04-22 15:43 | 47.56643 | 9.46536 | 5007 ft | 213 kts | 285° |
| 2026-04-22 15:43 | 47.56914 | 9.44394 | 5035 ft | 211 kts | 284° |
| 2026-04-22 15:43 | 47.57179 | 9.42267 | 5033 ft | 209 kts | 284° |
| 2026-04-22 15:43 | 47.57442 | 9.40154 | 5034 ft | 209 kts | 284° |
| 2026-04-22 15:44 | 47.57708 | 9.38035 | 5030 ft | 210 kts | 284° |
| 2026-04-22 15:44 | 47.57977 | 9.35906 | 5017 ft | 210 kts | 284° |
| 2026-04-22 15:44 | 47.58241 | 9.33773 | 5018 ft | 212 kts | 284° |
| 2026-04-22 15:44 | 47.58319 | 9.31585 | 5016 ft | 216 kts | 258° |
| 2026-04-22 15:45 | 47.57604 | 9.29668 | 5017 ft | 214 kts | 219° |
| 2026-04-22 15:45 | 47.56344 | 9.28591 | 5019 ft | 209 kts | 196° |
| 2026-04-22 15:45 | 47.54980 | 9.27872 | 5020 ft | 204 kts | 184° |
| 2026-04-22 15:45 | 47.53674 | 9.27919 | 5017 ft | 177 kts | 156° |
| 2026-04-22 15:46 | 47.52662 | 9.28693 | 5003 ft | 153 kts | 131° |
| 2026-04-22 15:46 | 47.52024 | 9.29827 | 5004 ft | 138 kts | 111° |
| 2026-04-22 15:46 | 47.51669 | 9.31124 | 5009 ft | 136 kts | 104° |
| 2026-04-22 15:46 | 47.51448 | 9.31987 | 5013 ft | 136 kts | 104° |
| 2026-04-22 15:47 | 47.51114 | 9.33297 | 5016 ft | 136 kts | 103° |
| 2026-04-22 15:47 | 47.50911 | 9.34640 | 5015 ft | 133 kts | 94° |
| 2026-04-22 15:47 | 47.50764 | 9.35976 | 4992 ft | 133 kts | 95° |
| 2026-04-22 15:47 | 47.50608 | 9.37388 | 4423 ft | 149 kts | 94° |
| 2026-04-22 15:48 | 47.50440 | 9.38869 | 4156 ft | 142 kts | 95° |
| 2026-04-22 15:48 | 47.50277 | 9.40303 | 3940 ft | 140 kts | 93° |
| 2026-04-22 15:48 | 47.50117 | 9.41712 | 3710 ft | 135 kts | 94° |
| 2026-04-22 15:48 | 47.49962 | 9.43045 | 3484 ft | 128 kts | 92° |
| 2026-04-22 15:49 | 47.49815 | 9.44336 | 3253 ft | 127 kts | 93° |
| 2026-04-22 15:49 | 47.49669 | 9.45617 | 3034 ft | 125 kts | 93° |
| 2026-04-22 15:49 | 47.49525 | 9.46887 | 2807 ft | 126 kts | 92° |
| 2026-04-22 15:49 | 47.49380 | 9.48167 | 2581 ft | 126 kts | 91° |
| 2026-04-22 15:50 | 47.49235 | 9.49449 | 2343 ft | 128 kts | 96° |
| 2026-04-22 15:50 | 47.49088 | 9.50742 | 2114 ft | 130 kts | 95° |
| 2026-04-22 15:50 | 47.48938 | 9.52061 | 1888 ft | 131 kts | 95° |
| 2026-04-22 15:50 | 47.48776 | 9.53379 | 1672 ft | 129 kts | 94° |
| 2026-04-22 15:51 | 47.48646 | 9.54684 | 1405 ft | 128 kts | 89° |
| 2026-04-22 15:51 | 47.48525 | 9.55903 | 1320 ft | 98 kts | 99° |
| 2026-04-22 15:51 | 47.48462 | 9.56474 | 1311 ft | 27 kts | 99° |
| 2026-04-22 15:51 | 47.48434 | 9.56745 | 1311 ft | 26 kts | 97° |
| 2026-04-22 15:52 | 47.48415 | 9.56958 | 1314 ft | 10 kts | 97° |
| 2026-04-22 15:52 | 47.48419 | 9.57039 | 1316 ft | 5 kts | 100° |
| 2026-04-22 15:52 | 47.48408 | 9.57027 | 1316 ft | 3 kts | 246° |
| 2026-04-22 15:52 | 47.48412 | 9.56961 | 1314 ft | 11 kts | 276° |
| 2026-04-22 15:53 | 47.48427 | 9.56815 | 1311 ft | 17 kts | 278° |
| 2026-04-22 15:53 | 47.48448 | 9.56616 | 1310 ft | 22 kts | 279° |
| 2026-04-22 15:53 | 47.48474 | 9.56369 | 1312 ft | 26 kts | 278° |
| 2026-04-22 15:53 | 47.48502 | 9.56091 | 1314 ft | 29 kts | 279° |
| 2026-04-22 15:54 | 47.48532 | 9.55806 | 1320 ft | 27 kts | 278° |
| 2026-04-22 15:54 | 47.48560 | 9.55528 | 1318 ft | 24 kts | 278° |
| 2026-04-22 15:54 | 47.48577 | 9.55362 | 1318 ft | 12 kts | 279° |
| 2026-04-22 15:54 | 47.48647 | 9.55312 | 1315 ft | 13 kts | 320° |
| 2026-04-22 15:55 | 47.48682 | 9.55249 | 1315 ft | 6 kts | 346° |
| 2026-04-22 15:55 | 47.48720 | 9.55254 | 1314 ft | 0 kts | 7° |